createdAt,value
2017-05-23T00:00:02.260Z,1.70
2017-05-23T00:02:31.184Z,3.34
2017-05-23T00:05:00.075Z,3.12
2017-05-23T00:07:28.961Z,2.86
2017-05-23T00:09:57.980Z,3.26
2017-05-23T00:12:26.860Z,3.34
2017-05-23T00:14:55.746Z,2.98
2017-05-23T00:17:24.757Z,3.10
2017-05-23T00:19:53.645Z,3.34
2017-05-23T00:22:21.761Z,3.56
2017-05-23T00:24:50.781Z,3.82
2017-05-23T00:27:19.673Z,4.06
2017-05-23T00:29:48.562Z,4.36
2017-05-23T00:32:17.586Z,4.52
2017-05-23T00:34:46.468Z,3.70
2017-05-23T00:37:15.364Z,3.32
2017-05-23T00:39:44.293Z,3.82
2017-05-23T00:42:13.181Z,3.64
2017-05-23T00:44:41.306Z,3.88
2017-05-23T00:47:10.225Z,4.20
2017-05-23T00:49:39.114Z,4.02
2017-05-23T00:52:07.996Z,4.30
2017-05-23T00:54:36.954Z,4.64
2017-05-23T00:57:05.830Z,3.62
2017-05-23T00:59:34.717Z,3.88
2017-05-23T01:02:02.880Z,4.26
2017-05-23T01:04:32.201Z,4.18
2017-05-23T01:07:01.089Z,4.38
2017-05-23T01:09:30.017Z,4.22
2017-05-23T01:11:58.905Z,4.26
2017-05-23T01:14:27.792Z,4.78
2017-05-23T01:16:56.728Z,4.94
2017-05-23T01:19:25.621Z,3.32
2017-05-23T01:21:54.508Z,4.88
2017-05-23T01:24:23.436Z,4.40
2017-05-23T01:26:52.318Z,3.22
2017-05-23T01:29:21.214Z,3.60
2017-05-23T01:31:50.143Z,3.72
2017-05-23T01:34:19.029Z,4.14
2017-05-23T01:36:47.929Z,4.36
2017-05-23T01:39:16.850Z,4.72
2017-05-23T01:41:45.730Z,3.74
2017-05-23T01:44:14.630Z,4.52
2017-05-23T01:46:43.558Z,4.30
2017-05-23T01:49:12.445Z,5.30
2017-05-23T01:51:41.332Z,4.00
2017-05-23T01:54:10.258Z,4.26
2017-05-23T01:56:39.146Z,3.44
2017-05-23T01:59:08.038Z,4.12
2017-05-23T02:01:37.061Z,4.10
2017-05-23T02:04:05.943Z,4.46
2017-05-23T02:06:34.826Z,3.80
2017-05-23T02:09:03.749Z,3.92
2017-05-23T02:11:32.637Z,4.32
2017-05-23T02:14:01.528Z,3.24
2017-05-23T02:16:30.460Z,3.94
2017-05-23T02:18:59.350Z,3.58
2017-05-23T02:21:28.237Z,4.58
2017-05-23T02:23:57.257Z,4.48
2017-05-23T02:26:26.154Z,5.20
2017-05-23T02:28:55.050Z,4.36
2017-05-23T02:31:23.212Z,4.88
2017-05-23T02:33:52.096Z,5.36
2017-05-23T02:36:20.993Z,4.66
2017-05-23T02:38:49.918Z,4.52
2017-05-23T02:41:18.833Z,4.22
2017-05-23T02:43:47.726Z,4.58
2017-05-23T02:46:16.657Z,4.90
2017-05-23T02:48:45.545Z,5.62
2017-05-23T02:51:14.433Z,4.88
2017-05-23T02:53:43.364Z,5.12
2017-05-23T02:56:12.252Z,5.00
2017-05-23T02:58:41.165Z,4.38
2017-05-23T03:01:10.092Z,4.02
2017-05-23T03:03:38.992Z,4.04
2017-05-23T03:06:07.877Z,4.32
2017-05-23T03:08:36.814Z,4.30
2017-05-23T03:11:05.702Z,4.80
2017-05-23T03:13:34.595Z,4.40
2017-05-23T03:16:03.611Z,3.40
2017-05-23T03:18:32.513Z,4.86
2017-05-23T03:21:01.400Z,4.50
2017-05-23T03:23:30.334Z,5.00
2017-05-23T03:25:59.225Z,4.86
2017-05-23T03:28:28.130Z,5.28
2017-05-23T03:30:57.061Z,4.16
2017-05-23T03:33:25.956Z,4.06
2017-05-23T03:35:56.966Z,4.98
2017-05-23T03:38:25.982Z,4.22
2017-05-23T03:40:54.866Z,4.40
2017-05-23T03:43:23.748Z,4.24
2017-05-23T03:45:52.712Z,4.94
2017-05-23T03:48:21.615Z,4.50
2017-05-23T03:50:50.497Z,4.16
2017-05-23T03:53:19.425Z,3.88
2017-05-23T03:55:48.324Z,4.78
2017-05-23T03:58:17.220Z,4.74
2017-05-23T04:00:46.148Z,4.42
2017-05-23T04:03:15.033Z,4.42
2017-05-23T04:05:43.930Z,4.96
2017-05-23T04:08:12.861Z,5.14
2017-05-23T04:10:41.761Z,5.48
2017-05-23T04:13:10.654Z,4.50
2017-05-23T04:15:39.576Z,4.86
2017-05-23T04:18:08.462Z,5.20
2017-05-23T04:20:37.349Z,5.10
2017-05-23T04:23:07.116Z,5.16
2017-05-23T04:25:36.002Z,5.44
2017-05-23T04:28:04.884Z,5.40
2017-05-23T04:30:33.814Z,5.44
2017-05-23T04:33:02.706Z,5.46
2017-05-23T04:35:31.601Z,5.70
2017-05-23T04:38:00.632Z,6.34
2017-05-23T04:40:29.521Z,5.96
2017-05-23T04:42:58.409Z,7.08
2017-05-23T04:45:27.335Z,6.98
2017-05-23T04:47:56.225Z,8.66
2017-05-23T04:50:25.116Z,7.58
2017-05-23T04:52:54.082Z,9.00
2017-05-23T04:55:22.974Z,7.58
2017-05-23T04:57:51.866Z,8.88
2017-05-23T05:00:20.788Z,7.78
2017-05-23T05:02:49.678Z,8.68
2017-05-23T05:05:18.563Z,8.82
2017-05-23T05:07:46.719Z,8.70
2017-05-23T05:10:15.607Z,9.94
2017-05-23T05:12:44.503Z,9.60
2017-05-23T05:15:13.418Z,9.00
2017-05-23T05:17:42.306Z,9.96
2017-05-23T05:20:11.194Z,9.64
2017-05-23T05:22:40.117Z,10.08
2017-05-23T05:25:09.008Z,8.82
2017-05-23T05:27:37.893Z,8.90
2017-05-23T05:30:06.910Z,9.98
2017-05-23T05:32:35.793Z,8.56
2017-05-23T05:35:04.689Z,9.58
2017-05-23T05:37:33.608Z,8.90
2017-05-23T05:40:02.503Z,8.78
2017-05-23T05:42:31.394Z,8.68
2017-05-23T05:45:00.325Z,8.58
2017-05-23T05:47:29.209Z,8.30
2017-05-23T05:49:58.088Z,8.08
2017-05-23T05:52:27.014Z,6.50
2017-05-23T05:54:55.900Z,6.76
2017-05-23T05:57:24.789Z,7.42
2017-05-23T05:59:53.713Z,7.28
2017-05-23T06:02:22.601Z,8.18
2017-05-23T06:04:51.481Z,7.52
2017-05-23T06:07:20.413Z,9.00
2017-05-23T06:09:49.310Z,8.28
2017-05-23T06:14:27.786Z,7.30
2017-05-23T06:16:56.677Z,7.28
2017-05-23T06:19:25.566Z,6.20
2017-05-23T06:21:54.502Z,7.26
2017-05-23T06:24:23.397Z,7.76
2017-05-23T06:26:52.278Z,6.66
2017-05-23T06:29:21.298Z,8.96
2017-05-23T06:31:50.186Z,7.40
2017-05-23T06:34:19.097Z,7.38
2017-05-23T06:36:48.112Z,8.04
2017-05-23T06:39:17.001Z,7.68
2017-05-23T06:41:45.886Z,7.46
2017-05-23T06:44:14.819Z,6.40
2017-05-23T06:46:43.708Z,8.82
2017-05-23T06:49:12.602Z,7.78
2017-05-23T06:51:41.525Z,9.04
2017-05-23T06:54:10.421Z,9.96
2017-05-23T06:56:39.309Z,7.72
2017-05-23T06:59:08.230Z,8.78
2017-05-23T07:01:37.120Z,8.12
2017-05-23T07:04:06.693Z,7.22
2017-05-23T07:06:36.317Z,7.70
2017-05-23T07:09:05.205Z,7.24
2017-05-23T07:11:34.102Z,6.16
2017-05-23T07:14:03.021Z,7.12
2017-05-23T07:16:31.910Z,6.52
2017-05-23T07:19:00.795Z,6.76
2017-05-23T07:21:29.721Z,8.40
2017-05-23T07:23:58.613Z,6.22
2017-05-23T07:26:27.501Z,6.60
2017-05-23T07:28:56.478Z,6.60
2017-05-23T07:31:26.285Z,8.52
2017-05-23T07:33:55.177Z,10.36
2017-05-23T07:36:24.207Z,11.16
2017-05-23T07:38:53.103Z,9.38
2017-05-23T07:41:23.040Z,9.62
2017-05-23T07:43:52.049Z,9.48
2017-05-23T07:46:20.942Z,7.96
2017-05-23T07:48:49.836Z,10.16
2017-05-23T07:51:18.769Z,8.70
2017-05-23T07:53:47.690Z,9.80
2017-05-23T07:56:16.582Z,8.68
2017-05-23T07:58:45.621Z,10.08
2017-05-23T08:01:15.454Z,9.18
2017-05-23T08:03:44.349Z,9.02
2017-05-23T08:06:13.274Z,8.86
2017-05-23T08:08:42.162Z,7.54
2017-05-23T08:11:11.051Z,7.34
2017-05-23T08:13:39.977Z,7.92
2017-05-23T08:16:08.863Z,7.62
2017-05-23T08:18:37.753Z,8.50
2017-05-23T08:21:06.701Z,7.96
2017-05-23T08:23:35.588Z,7.22
2017-05-23T08:26:04.470Z,6.64
2017-05-23T08:28:33.501Z,8.22
2017-05-23T08:31:02.385Z,7.20
2017-05-23T08:33:31.282Z,6.92
2017-05-23T08:36:00.292Z,7.20
2017-05-23T08:38:29.185Z,7.72
2017-05-23T08:40:58.081Z,6.52
2017-05-23T08:43:27.013Z,7.92
2017-05-23T08:45:55.918Z,6.72
2017-05-23T08:48:24.808Z,7.64
2017-05-23T08:50:53.830Z,7.74
2017-05-23T08:53:22.722Z,7.30
2017-05-23T08:55:51.616Z,6.20
2017-05-23T08:58:20.537Z,7.28
2017-05-23T09:00:49.426Z,8.50
2017-05-23T09:03:18.310Z,7.12
2017-05-23T09:05:47.241Z,7.02
2017-05-23T09:08:16.129Z,7.72
2017-05-23T09:10:45.025Z,7.30
2017-05-23T09:13:14.050Z,7.50
2017-05-23T09:15:42.951Z,7.26
2017-05-23T09:18:11.837Z,6.46
2017-05-23T09:20:40.752Z,5.84
2017-05-23T09:23:09.640Z,5.88
2017-05-23T09:25:55.380Z,4.96
2017-05-23T09:28:24.271Z,5.38
2017-05-23T09:30:53.162Z,6.00
2017-05-23T09:33:22.097Z,4.98
2017-05-23T09:35:50.983Z,5.38
2017-05-23T09:38:19.871Z,4.58
2017-05-23T09:40:48.805Z,4.70
2017-05-23T09:43:17.698Z,4.66
2017-05-23T09:45:46.585Z,4.74
2017-05-23T09:48:15.505Z,4.48
2017-05-23T09:50:44.429Z,4.56
2017-05-23T09:53:13.321Z,4.14
2017-05-23T09:55:42.253Z,4.66
2017-05-23T09:58:11.137Z,4.50
2017-05-23T10:00:40.029Z,4.14
2017-05-23T10:03:08.954Z,3.46
2017-05-23T10:05:37.845Z,4.50
2017-05-23T10:08:06.735Z,4.56
2017-05-23T10:10:35.663Z,4.50
2017-05-23T10:13:04.546Z,3.88
2017-05-23T10:15:33.441Z,4.38
2017-05-23T10:18:02.366Z,3.42
2017-05-23T10:20:31.258Z,4.00
2017-05-23T10:23:00.142Z,3.78
2017-05-23T10:25:29.088Z,3.84
2017-05-23T10:27:57.973Z,4.96
2017-05-23T10:30:26.868Z,4.50
2017-05-23T10:32:55.780Z,3.56
2017-05-23T10:35:24.670Z,3.82
2017-05-23T10:37:53.566Z,3.18
2017-05-23T10:40:22.592Z,3.58
2017-05-23T10:42:51.477Z,3.46
2017-05-23T10:45:20.366Z,3.58
2017-05-23T10:47:49.295Z,3.42
2017-05-23T10:50:18.194Z,4.02
2017-05-23T10:52:47.079Z,3.50
2017-05-23T10:55:16.000Z,3.18
2017-05-23T10:57:44.891Z,3.62
2017-05-23T11:00:13.782Z,2.80
2017-05-23T11:02:42.705Z,3.18
2017-05-23T11:05:11.596Z,2.88
2017-05-23T11:07:40.492Z,3.76
2017-05-23T11:10:09.497Z,3.92
2017-05-23T11:12:38.325Z,3.14
2017-05-23T11:15:07.213Z,2.84
2017-05-23T11:17:36.137Z,2.30
2017-05-23T11:20:05.025Z,3.00
2017-05-23T11:22:33.923Z,3.12
2017-05-23T11:25:02.852Z,3.68
2017-05-23T11:27:31.746Z,3.38
2017-05-23T11:30:00.633Z,2.58
2017-05-23T11:32:29.652Z,2.90
2017-05-23T11:34:58.541Z,2.88
2017-05-23T11:37:27.433Z,3.86
2017-05-23T11:39:56.361Z,3.84
2017-05-23T11:42:25.260Z,3.60
2017-05-23T11:44:54.142Z,2.50
2017-05-23T11:47:23.068Z,3.24
2017-05-23T11:49:51.957Z,3.60
2017-05-23T11:52:20.849Z,3.16
2017-05-23T11:54:49.778Z,3.30
2017-05-23T11:57:18.675Z,3.68
2017-05-23T11:59:47.565Z,3.10
2017-05-23T12:02:16.496Z,3.46
2017-05-23T12:04:45.385Z,3.34
2017-05-23T12:07:14.269Z,2.56
2017-05-23T12:09:43.202Z,2.12
2017-05-23T12:12:12.089Z,2.58
2017-05-23T12:14:40.978Z,3.42
2017-05-23T12:17:09.937Z,3.40
2017-05-23T12:19:38.824Z,3.52
2017-05-23T12:22:07.717Z,2.70
2017-05-23T12:24:35.878Z,2.80
2017-05-23T12:27:04.771Z,2.50
2017-05-23T12:29:33.660Z,3.02
2017-05-23T12:32:02.590Z,2.80
2017-05-23T12:34:31.478Z,2.70
2017-05-23T12:37:00.365Z,2.34
2017-05-23T12:39:29.297Z,3.06
2017-05-23T12:41:57.416Z,3.26
2017-05-23T12:44:26.304Z,3.30
2017-05-23T12:46:55.239Z,3.42
2017-05-23T12:49:24.125Z,3.02
2017-05-23T12:51:53.018Z,3.22
2017-05-23T12:54:21.941Z,3.28
2017-05-23T12:56:50.825Z,2.80
2017-05-23T12:59:19.713Z,2.92
2017-05-23T13:01:48.735Z,2.86
2017-05-23T13:04:17.650Z,3.16
2017-05-23T13:06:46.546Z,3.04
2017-05-23T13:09:15.493Z,2.68
2017-05-23T13:11:44.375Z,2.92
2017-05-23T13:14:13.264Z,2.90
2017-05-23T13:16:42.193Z,3.08
2017-05-23T13:19:11.086Z,3.24
2017-05-23T13:21:39.982Z,3.50
2017-05-23T13:24:08.908Z,3.00
2017-05-23T13:26:37.803Z,3.40
2017-05-23T13:29:06.688Z,2.92
2017-05-23T13:31:35.617Z,2.70
2017-05-23T13:34:04.513Z,3.12
2017-05-23T13:36:33.400Z,3.10
2017-05-23T13:39:02.325Z,3.64
2017-05-23T13:41:31.214Z,2.80
2017-05-23T13:44:00.115Z,3.66
2017-05-23T13:46:29.058Z,3.22
2017-05-23T13:48:57.172Z,3.00
2017-05-23T13:51:26.062Z,3.60
2017-05-23T13:53:54.978Z,4.02
2017-05-23T13:56:23.876Z,3.78
2017-05-23T13:58:52.765Z,3.58
2017-05-23T14:01:21.689Z,3.50
2017-05-23T14:03:50.577Z,3.42
2017-05-23T14:06:19.478Z,2.80
2017-05-23T14:08:48.401Z,3.30
2017-05-23T14:11:17.289Z,3.40
2017-05-23T14:13:46.182Z,3.54
2017-05-23T14:16:15.107Z,2.64
2017-05-23T14:18:43.996Z,3.70
2017-05-23T14:21:12.889Z,3.50
2017-05-23T14:23:41.820Z,3.72
2017-05-23T14:26:10.706Z,3.02
2017-05-23T14:28:39.592Z,3.46
2017-05-23T14:31:08.523Z,3.20
2017-05-23T14:33:37.406Z,3.76
2017-05-23T14:36:06.297Z,7.22
2017-05-23T14:38:35.222Z,3.78
2017-05-23T14:41:04.111Z,3.50
2017-05-23T14:43:33.001Z,3.84
2017-05-23T14:46:01.928Z,2.82
2017-05-23T14:48:30.820Z,3.58
2017-05-23T14:50:59.712Z,3.50
2017-05-23T14:53:28.645Z,3.64
2017-05-23T14:55:57.533Z,3.10
2017-05-23T14:58:26.428Z,3.30
2017-05-23T15:00:55.354Z,3.30
2017-05-23T15:03:24.251Z,2.88
2017-05-23T15:05:53.147Z,3.48
2017-05-23T15:08:22.093Z,3.30
2017-05-23T15:10:50.994Z,3.10
2017-05-23T15:13:19.884Z,3.66
2017-05-23T15:15:48.808Z,3.04
2017-05-23T15:18:17.699Z,2.96
2017-05-23T15:20:46.584Z,3.04
2017-05-23T15:23:15.525Z,3.00
2017-05-23T15:25:44.417Z,3.08
2017-05-23T15:28:13.305Z,2.92
2017-05-23T15:30:42.241Z,2.76
2017-05-23T15:33:11.129Z,3.20
2017-05-23T15:35:40.017Z,2.56
2017-05-23T15:38:08.948Z,2.70
2017-05-23T15:40:37.840Z,2.90
2017-05-23T15:43:06.734Z,2.70
2017-05-23T15:45:35.665Z,2.50
2017-05-23T15:48:04.549Z,2.68
2017-05-23T15:50:33.437Z,2.78
2017-05-23T15:53:02.365Z,2.44
2017-05-23T15:55:31.261Z,3.12
2017-05-23T15:58:00.146Z,3.46
2017-05-23T16:00:29.997Z,3.38
2017-05-23T16:02:58.887Z,2.72
2017-05-23T16:05:27.769Z,2.96
2017-05-23T16:07:56.695Z,3.24
2017-05-23T16:10:25.577Z,2.72
2017-05-23T16:12:54.709Z,2.74
2017-05-23T16:15:23.637Z,3.10
2017-05-23T16:17:52.539Z,3.30
2017-05-23T16:20:21.421Z,3.20
2017-05-23T16:22:50.491Z,3.10
2017-05-23T16:25:19.488Z,3.36
2017-05-23T16:27:48.378Z,2.78
2017-05-23T16:30:17.322Z,2.78
2017-05-23T16:32:46.206Z,2.94
2017-05-23T16:35:15.104Z,2.88
2017-05-23T16:37:44.144Z,3.26
2017-05-23T16:40:13.038Z,3.42
2017-05-23T16:42:41.921Z,3.46
2017-05-23T16:45:10.838Z,3.02
2017-05-23T16:47:39.725Z,3.22
2017-05-23T16:50:08.614Z,2.72
2017-05-23T16:52:37.540Z,3.24
2017-05-23T16:55:07.452Z,2.88
2017-05-23T16:57:36.341Z,2.76
2017-05-23T17:02:43.341Z,3.58
2017-05-23T17:05:12.273Z,2.86
2017-05-23T17:07:41.164Z,3.58
2017-05-23T17:10:10.049Z,3.44
2017-05-23T17:12:39.078Z,3.22
2017-05-23T17:15:07.978Z,3.40
2017-05-23T17:17:36.864Z,3.36
2017-05-23T17:20:05.799Z,2.90
2017-05-23T17:22:34.689Z,3.14
2017-05-23T17:25:03.574Z,3.10
2017-05-23T17:27:32.501Z,3.32
2017-05-23T17:30:01.402Z,3.50
2017-05-23T17:32:30.297Z,3.02
2017-05-23T17:34:59.236Z,2.90
2017-05-23T17:37:28.117Z,2.40
2017-05-23T17:39:57.094Z,3.00
2017-05-23T17:42:26.037Z,2.58
2017-05-23T17:44:54.942Z,3.46
2017-05-23T17:47:23.837Z,2.92
2017-05-23T17:49:52.774Z,2.98
2017-05-23T17:52:21.661Z,4.16
2017-05-23T17:54:50.552Z,3.16
2017-05-23T17:57:19.580Z,3.22
2017-05-23T17:59:48.469Z,3.14
2017-05-23T18:02:17.354Z,3.30
2017-05-23T18:04:46.301Z,4.48
2017-05-23T18:07:16.062Z,3.92
2017-05-23T18:09:44.954Z,3.62
2017-05-23T18:12:13.842Z,3.94
2017-05-23T18:14:42.770Z,5.50
2017-05-23T18:17:11.719Z,4.32
2017-05-23T18:19:40.738Z,3.90
2017-05-23T18:22:09.669Z,4.96
2017-05-23T18:24:38.567Z,5.26
2017-05-23T18:27:07.493Z,4.20
2017-05-23T18:29:36.411Z,4.22
2017-05-23T18:32:05.318Z,5.44
2017-05-23T18:34:34.249Z,4.66
2017-05-23T18:37:03.163Z,4.62
2017-05-23T18:39:32.057Z,5.40
2017-05-23T18:42:01.085Z,5.50
2017-05-23T18:44:29.988Z,4.82
2017-05-23T18:46:58.873Z,4.94
2017-05-23T18:49:27.885Z,5.22
2017-05-23T18:51:56.918Z,5.48
2017-05-23T18:54:25.849Z,4.46
2017-05-23T18:56:54.736Z,4.54
2017-05-23T18:59:23.638Z,4.98
2017-05-23T19:06:23.140Z,5.38
2017-05-23T19:08:52.949Z,6.46
2017-05-23T19:12:16.441Z,5.32
2017-05-23T19:17:16.177Z,4.74
2017-05-23T19:19:45.969Z,5.44
2017-05-23T19:23:28.057Z,6.12
2017-05-23T19:25:58.222Z,5.22
2017-05-23T19:28:28.066Z,5.82
2017-05-23T19:30:57.860Z,5.48
2017-05-23T19:33:27.666Z,5.38
2017-05-23T19:35:57.596Z,5.22
2017-05-23T19:38:27.396Z,5.26
2017-05-23T19:40:57.238Z,5.58
2017-05-23T19:43:27.069Z,5.66
2017-05-23T19:45:54.666Z,6.00
2017-05-23T19:48:21.881Z,5.60
2017-05-23T19:50:49.029Z,5.02
2017-05-23T19:53:16.181Z,5.68
2017-05-23T19:55:43.388Z,6.26
2017-05-23T19:58:10.545Z,6.82
2017-05-23T20:00:37.813Z,6.44
2017-05-23T20:03:04.981Z,6.60
2017-05-23T20:05:32.117Z,6.28
2017-05-23T20:07:59.277Z,6.34
2017-05-23T20:10:26.478Z,6.38
2017-05-23T20:12:53.612Z,6.92
2017-05-23T20:15:21.704Z,6.28
2017-05-23T20:17:48.865Z,6.24
2017-05-23T20:20:16.012Z,6.18
2017-05-23T20:22:43.159Z,5.40
2017-05-23T20:25:10.321Z,5.82
2017-05-23T20:27:37.489Z,5.82
2017-05-23T20:30:04.657Z,5.36
2017-05-23T20:32:31.833Z,5.58
2017-05-23T20:35:00.664Z,6.04
2017-05-23T20:37:28.211Z,7.34
2017-05-23T20:39:55.513Z,6.12
2017-05-23T20:42:22.645Z,6.56
2017-05-23T20:44:49.787Z,6.88
2017-05-23T20:47:17.053Z,5.92
2017-05-23T20:49:44.241Z,5.74
2017-05-23T20:52:11.481Z,6.02
2017-05-23T20:54:38.662Z,7.00
2017-05-23T20:57:05.806Z,5.72
2017-05-23T20:59:32.994Z,6.06
2017-05-23T21:02:00.155Z,6.12
2017-05-23T21:04:27.315Z,5.76
2017-05-23T21:06:54.505Z,6.20
2017-05-23T21:09:21.647Z,5.96
2017-05-23T21:11:49.345Z,5.52
2017-05-23T21:14:16.651Z,6.06
2017-05-23T21:16:43.785Z,6.44
2017-05-23T21:19:10.931Z,6.44
2017-05-23T21:21:38.204Z,5.36
2017-05-23T21:24:05.346Z,5.36
2017-05-23T21:26:32.494Z,5.84
2017-05-23T21:28:59.801Z,4.96
2017-05-23T21:31:26.948Z,7.00
2017-05-23T21:33:54.077Z,6.22
2017-05-23T21:36:21.304Z,5.86
2017-05-23T21:38:48.441Z,6.02
2017-05-23T21:41:15.572Z,6.28
2017-05-23T21:43:42.789Z,5.26
2017-05-23T21:46:09.913Z,5.62
2017-05-23T21:48:37.057Z,6.60
2017-05-23T21:51:04.243Z,6.26
2017-05-23T21:53:31.378Z,5.76
2017-05-23T21:55:58.541Z,5.64
2017-05-23T21:58:25.801Z,5.88
2017-05-23T22:00:52.949Z,5.70
2017-05-23T22:03:20.073Z,5.96
2017-05-23T22:05:47.413Z,5.18
2017-05-23T22:08:14.546Z,6.20
2017-05-23T22:10:41.676Z,6.00
2017-05-23T22:13:08.961Z,6.16
2017-05-23T22:15:36.108Z,5.84
2017-05-23T22:18:03.253Z,6.50
2017-05-23T22:20:30.444Z,5.70
2017-05-23T22:22:57.587Z,5.80
2017-05-23T22:25:24.732Z,5.88
2017-05-23T22:27:51.938Z,6.56
2017-05-23T22:30:19.099Z,6.22
2017-05-23T22:32:46.242Z,6.08
2017-05-23T22:35:13.415Z,6.68
2017-05-23T22:37:40.584Z,5.44
2017-05-23T22:40:07.717Z,6.82
2017-05-23T22:42:34.978Z,5.98
2017-05-23T22:45:02.116Z,9.10
2017-05-23T22:47:29.259Z,6.16
2017-05-23T22:49:56.444Z,6.18
2017-05-23T22:52:23.597Z,6.86
2017-05-23T22:54:50.721Z,5.94
2017-05-23T22:57:17.974Z,5.70
2017-05-23T22:59:45.101Z,6.56
2017-05-23T23:02:12.237Z,6.10
2017-05-23T23:04:39.414Z,5.60
2017-05-23T23:07:06.573Z,6.16
2017-05-23T23:09:33.721Z,7.38
2017-05-23T23:12:00.984Z,6.44
2017-05-23T23:14:28.137Z,6.34
2017-05-23T23:16:55.274Z,6.46
2017-05-23T23:19:22.462Z,6.12
2017-05-23T23:21:49.596Z,6.38
2017-05-23T23:24:16.737Z,6.54
2017-05-23T23:26:43.906Z,5.58
2017-05-23T23:29:11.057Z,5.64
2017-05-23T23:31:38.185Z,6.28
2017-05-23T23:34:05.368Z,6.22
2017-05-23T23:36:32.538Z,6.74
2017-05-23T23:38:59.681Z,5.88
2017-05-23T23:41:26.862Z,6.62
2017-05-23T23:43:54.006Z,6.58
2017-05-23T23:46:21.141Z,6.16
2017-05-23T23:48:48.309Z,5.48
2017-05-23T23:51:15.453Z,6.58
2017-05-23T23:53:42.600Z,6.40
2017-05-23T23:56:09.778Z,5.90
2017-05-23T23:58:36.906Z,6.06
